createdAt,value
2023-04-26T03:41:05.017Z,6.83
2023-04-26T03:44:08.525Z,6.83
2023-04-26T03:47:11.203Z,6.32
2023-04-26T03:50:14.347Z,6.26
2023-04-26T03:53:16.982Z,6.24
2023-04-26T03:56:20.023Z,6.26
2023-04-26T03:59:23.774Z,6.27
2023-04-26T04:02:26.995Z,6.25
2023-04-26T04:05:31.215Z,6.31
2023-04-26T04:08:34.212Z,6.37
2023-04-26T04:11:37.224Z,6.50
2023-04-26T04:14:39.982Z,6.55
2023-04-26T04:17:43.015Z,6.65
2023-04-26T04:20:46.445Z,6.70
2023-04-26T04:23:50.371Z,6.91
2023-04-26T04:26:53.113Z,6.99
2023-04-26T04:29:56.361Z,7.02
2023-04-26T04:33:00.287Z,7.16
2023-04-26T04:36:03.563Z,7.20
2023-04-26T04:39:12.359Z,7.25
2023-04-26T04:42:16.059Z,7.38
2023-04-26T04:45:18.798Z,7.57
2023-04-26T04:48:30.390Z,7.57
2023-04-26T04:51:33.297Z,7.72
2023-04-26T04:54:36.286Z,7.75
2023-04-26T04:57:40.612Z,7.73
2023-04-26T05:00:47.010Z,7.84
2023-04-26T05:03:50.700Z,7.97
2023-04-26T05:06:54.160Z,8.03
2023-04-26T05:09:58.531Z,8.07
2023-04-26T05:13:01.723Z,8.10
2023-04-26T05:16:04.486Z,8.13
2023-04-26T05:19:09.496Z,8.24
2023-04-26T05:22:21.177Z,8.36
2023-04-26T05:25:24.180Z,8.35
2023-04-26T05:28:28.000Z,8.38
2023-04-26T05:31:32.837Z,8.54
2023-04-26T05:34:36.631Z,8.62
2023-04-26T05:37:40.131Z,8.76
2023-04-26T05:40:43.368Z,8.76
2023-04-26T05:43:47.760Z,8.78
2023-04-26T05:46:50.688Z,8.92
2023-04-26T05:49:53.860Z,9.00
2023-04-26T05:52:56.466Z,8.99
2023-04-26T05:55:59.366Z,9.15
2023-04-26T05:59:02.244Z,9.16
2023-04-26T06:02:07.131Z,9.27
2023-04-26T06:05:10.793Z,9.38
2023-04-26T06:08:14.168Z,9.22
2023-04-26T06:11:17.186Z,9.37
2023-04-26T06:14:29.837Z,9.50
2023-04-26T06:17:34.077Z,9.67
2023-04-26T06:20:36.911Z,9.68
2023-04-26T06:23:41.851Z,9.76
2023-04-26T06:26:44.528Z,9.96
2023-04-26T06:29:47.758Z,10.17
2023-04-26T06:32:51.539Z,10.30
2023-04-26T06:35:54.478Z,10.37
2023-04-26T06:38:57.172Z,10.46
2023-04-26T06:42:03.608Z,10.53
2023-04-26T06:45:09.096Z,10.54
2023-04-26T06:48:12.213Z,10.63
2023-04-26T06:51:15.040Z,10.75
2023-04-26T06:54:17.804Z,10.85
2023-04-26T06:57:20.500Z,10.97
2023-04-26T07:00:23.870Z,11.03
2023-04-26T07:03:27.026Z,10.99
2023-04-26T07:06:34.095Z,11.16
2023-04-26T07:09:37.046Z,11.34
2023-04-26T07:12:40.010Z,11.63
2023-04-26T07:15:42.713Z,11.98
2023-04-26T07:18:48.298Z,12.21
2023-04-26T07:21:51.050Z,12.40
2023-04-26T07:24:54.341Z,12.26
2023-04-26T07:27:57.073Z,12.55
2023-04-26T07:31:01.660Z,12.69
2023-04-26T07:34:04.369Z,12.68
2023-04-26T07:37:07.208Z,12.61
2023-04-26T07:40:11.544Z,12.67
2023-04-26T07:43:15.653Z,12.80
2023-04-26T07:46:18.667Z,13.17
2023-04-26T07:49:21.775Z,13.40
2023-04-26T07:52:24.475Z,13.43
2023-04-26T07:55:27.500Z,13.42
2023-04-26T07:58:30.282Z,13.90
2023-04-26T08:01:33.685Z,13.96
2023-04-26T08:04:36.988Z,14.14
2023-04-26T08:07:40.284Z,14.09
2023-04-26T08:10:43.139Z,14.40
2023-04-26T08:13:46.327Z,13.90
2023-04-26T08:16:49.417Z,13.72
2023-04-26T08:19:52.114Z,13.56
2023-04-26T08:22:58.463Z,13.66
2023-04-26T08:26:01.456Z,13.60
2023-04-26T08:29:04.195Z,13.64
2023-04-26T08:32:07.259Z,13.41
2023-04-26T08:35:10.741Z,13.29
2023-04-26T08:38:13.525Z,13.46
2023-04-26T08:41:22.532Z,13.11
2023-04-26T08:44:25.698Z,13.25
2023-04-26T08:47:36.501Z,13.22
2023-04-26T08:50:40.745Z,13.37
2023-04-26T08:53:44.116Z,13.43
2023-04-26T08:56:47.884Z,13.43
2023-04-26T08:59:52.790Z,13.61
2023-04-26T09:02:55.746Z,13.84
2023-04-26T09:06:01.141Z,13.66
2023-04-26T09:09:29.725Z,13.81
2023-04-26T09:12:32.770Z,13.67
2023-04-26T09:15:35.832Z,13.92
2023-04-26T09:18:47.424Z,13.93
2023-04-26T09:21:50.012Z,14.23
2023-04-26T09:24:53.065Z,14.52
2023-04-26T09:27:55.974Z,14.67
2023-04-26T09:30:59.150Z,14.85
2023-04-26T09:34:01.822Z,15.04
2023-04-26T09:37:04.872Z,15.04
2023-04-26T09:40:19.558Z,14.85
2023-04-26T09:43:23.063Z,15.54
2023-04-26T09:46:37.087Z,15.80
2023-04-26T09:49:49.129Z,15.85
2023-04-26T09:52:51.893Z,16.01
2023-04-26T09:55:55.281Z,16.30
2023-04-26T09:59:00.690Z,15.85
2023-04-26T10:02:03.908Z,15.49
2023-04-26T10:05:07.639Z,15.71
2023-04-26T10:08:10.473Z,15.88
2023-04-26T10:11:14.077Z,15.83
2023-04-26T10:14:16.601Z,16.39
2023-04-26T10:17:21.043Z,17.38
2023-04-26T10:20:27.145Z,17.80
2023-04-26T10:23:30.188Z,17.49
2023-04-26T10:26:54.972Z,17.54
2023-04-26T10:29:59.270Z,17.49
2023-04-26T10:33:02.273Z,17.99
2023-04-26T10:36:14.494Z,18.27
2023-04-26T10:39:30.776Z,17.74
2023-04-26T10:42:33.949Z,17.73
2023-04-26T10:45:37.369Z,18.32
2023-04-26T10:48:40.566Z,18.60
2023-04-26T10:52:16.297Z,17.78
2023-04-26T10:55:40.030Z,16.98
2023-04-26T10:58:46.349Z,17.30
2023-04-26T11:01:49.530Z,17.85
2023-04-26T11:04:53.090Z,17.94
2023-04-26T11:08:06.701Z,18.61
2023-04-26T11:11:12.752Z,19.11
2023-04-26T11:14:16.448Z,18.06
2023-04-26T11:17:20.402Z,17.59
2023-04-26T11:20:23.681Z,17.40
2023-04-26T11:23:28.889Z,17.98
2023-04-26T11:26:37.085Z,18.12
2023-04-26T11:29:39.730Z,18.44
2023-04-26T11:32:42.489Z,17.87
2023-04-26T11:35:47.613Z,17.30
2023-04-26T11:38:51.697Z,17.22
2023-04-26T11:42:11.498Z,17.64
2023-04-26T11:45:18.766Z,17.97
2023-04-26T11:48:21.682Z,18.64
2023-04-26T11:51:25.965Z,19.17
2023-04-26T11:54:30.329Z,20.16
2023-04-26T11:57:34.298Z,21.30
2023-04-26T12:00:37.056Z,22.02
2023-04-26T12:03:40.488Z,20.95
2023-04-26T12:06:45.150Z,19.27
2023-04-26T12:09:48.354Z,19.14
2023-04-26T12:12:51.837Z,18.85
2023-04-26T12:15:54.821Z,19.55
2023-04-26T12:18:58.207Z,21.51
2023-04-26T12:22:01.599Z,21.73
2023-04-26T12:25:06.417Z,19.98
2023-04-26T12:28:13.754Z,19.03
2023-04-26T12:31:16.874Z,17.95
2023-04-26T12:34:19.905Z,17.73
2023-04-26T12:37:22.719Z,18.03
2023-04-26T12:40:26.102Z,18.30
2023-04-26T12:43:28.572Z,20.33
2023-04-26T12:46:31.454Z,26.42
2023-04-26T12:49:34.497Z,26.47
2023-04-26T12:52:37.441Z,23.82
2023-04-26T12:55:40.303Z,21.29
2023-04-26T12:58:43.439Z,20.84
2023-04-26T13:01:46.130Z,21.08
2023-04-26T13:04:49.232Z,25.86
2023-04-26T13:07:52.116Z,30.12
2023-04-26T13:10:55.232Z,30.36
2023-04-26T13:13:57.988Z,29.33
2023-04-26T13:17:01.949Z,25.20
2023-04-26T13:20:06.414Z,23.94
2023-04-26T13:23:11.647Z,25.96
2023-04-26T13:26:15.222Z,25.43
2023-04-26T13:29:18.525Z,25.52
2023-04-26T13:32:21.998Z,28.21
2023-04-26T13:35:25.775Z,33.15
2023-04-26T13:38:32.845Z,33.52
2023-04-26T13:41:36.912Z,35.76
2023-04-26T13:44:39.987Z,34.06
2023-04-26T13:47:43.020Z,29.39
2023-04-26T13:50:46.181Z,24.70
2023-04-26T13:53:49.178Z,21.82
2023-04-26T13:56:52.776Z,20.40
2023-04-26T13:59:55.961Z,19.33
2023-04-26T14:02:59.110Z,18.22
2023-04-26T14:06:03.573Z,18.36
2023-04-26T14:09:06.982Z,22.16
2023-04-26T14:12:10.457Z,28.95
2023-04-26T14:15:13.091Z,33.51
2023-04-26T14:18:17.374Z,31.67
2023-04-26T14:21:20.380Z,28.88
2023-04-26T14:24:23.487Z,25.28
2023-04-26T14:27:26.175Z,22.19
2023-04-26T14:30:29.285Z,19.96
2023-04-26T14:33:32.168Z,18.96
2023-04-26T14:36:35.154Z,17.99
2023-04-26T14:39:37.786Z,19.41
2023-04-26T14:42:45.902Z,20.84
2023-04-26T14:45:51.301Z,19.19
2023-04-26T14:48:55.257Z,18.08
2023-04-26T14:51:57.948Z,16.87
2023-04-26T14:55:00.754Z,16.18
2023-04-26T14:58:03.305Z,15.66
2023-04-26T15:01:06.458Z,16.39
2023-04-26T15:04:09.398Z,19.79
2023-04-26T15:07:21.063Z,26.20
2023-04-26T15:10:31.629Z,28.62
2023-04-26T15:13:34.803Z,32.76
2023-04-26T15:16:37.515Z,31.81
2023-04-26T15:19:40.573Z,27.30
2023-04-26T15:22:43.378Z,23.43
2023-04-26T15:25:46.538Z,19.93
2023-04-26T15:28:49.825Z,18.23
2023-04-26T15:31:52.994Z,16.85
2023-04-26T15:34:55.850Z,15.51
